createdAt,value
2023-05-14T00:00:36.226Z,64.46
2023-05-14T00:03:20.251Z,64.61
2023-05-14T00:06:04.262Z,64.26
2023-05-14T00:08:48.124Z,64.80
2023-05-14T00:11:31.961Z,65.07
2023-05-14T00:14:17.325Z,64.40
2023-05-14T00:17:01.464Z,64.05
2023-05-14T00:19:45.663Z,64.11
2023-05-14T00:22:29.584Z,63.84
2023-05-14T00:25:13.457Z,63.60
2023-05-14T00:27:57.319Z,62.93
2023-05-14T00:30:42.657Z,63.05
2023-05-14T00:33:26.814Z,62.86
2023-05-14T00:36:10.876Z,62.85
2023-05-14T00:38:54.766Z,63.34
2023-05-14T00:41:38.897Z,63.93
2023-05-14T00:44:22.677Z,63.40
2023-05-14T00:47:09.317Z,63.40
2023-05-14T00:49:53.181Z,63.54
2023-05-14T00:52:38.818Z,63.22
2023-05-14T00:55:23.710Z,64.49
2023-05-14T00:58:10.472Z,64.71
2023-05-14T01:00:54.965Z,65.56
2023-05-14T01:03:40.613Z,65.29
2023-05-14T01:06:31.410Z,64.46
2023-05-14T01:09:23.936Z,63.34
2023-05-14T01:12:15.507Z,62.02
2023-05-14T01:15:06.701Z,61.31
2023-05-14T01:17:54.867Z,61.21
2023-05-14T01:20:40.199Z,61.16
2023-05-14T01:23:26.846Z,60.37
2023-05-14T01:26:10.791Z,59.94
2023-05-14T01:28:57.534Z,59.73
2023-05-14T01:31:44.380Z,59.54
2023-05-14T01:34:31.409Z,59.31
2023-05-14T01:37:20.208Z,59.05
2023-05-14T01:40:06.985Z,59.68
2023-05-14T01:42:52.468Z,57.48
2023-05-14T01:45:37.442Z,57.21
2023-05-14T01:48:21.542Z,56.93
2023-05-14T01:51:05.720Z,57.11
2023-05-14T01:53:53.437Z,56.84
2023-05-14T01:56:39.095Z,56.08
2023-05-14T01:59:25.217Z,56.09
2023-05-14T02:02:09.311Z,56.16
2023-05-14T02:04:53.241Z,56.53
2023-05-14T02:07:37.181Z,56.56
2023-05-14T02:10:21.575Z,56.63
2023-05-14T02:13:10.725Z,56.64
2023-05-14T02:15:55.031Z,56.68
2023-05-14T02:18:39.407Z,56.45
2023-05-14T02:21:23.833Z,56.90
2023-05-14T02:24:07.973Z,58.10
2023-05-14T02:26:52.548Z,58.30
2023-05-14T02:29:37.916Z,58.20
2023-05-14T02:32:22.600Z,58.95
2023-05-14T02:35:07.625Z,59.65
2023-05-14T02:37:52.204Z,61.21
2023-05-14T02:40:38.271Z,61.59
2023-05-14T02:43:22.262Z,61.46
2023-05-14T02:46:08.053Z,61.70
2023-05-14T02:48:51.899Z,62.21
2023-05-14T02:51:35.803Z,62.34
2023-05-14T02:54:19.775Z,62.24
2023-05-14T02:57:03.848Z,62.37
2023-05-14T02:59:47.741Z,61.73
2023-05-14T03:02:33.854Z,60.90
2023-05-14T03:05:18.122Z,59.98
2023-05-14T03:08:02.172Z,58.98
2023-05-14T03:10:46.186Z,58.33
2023-05-14T03:13:30.634Z,57.31
2023-05-14T03:16:14.590Z,57.96
2023-05-14T03:19:00.247Z,57.95
2023-05-14T03:21:44.432Z,57.61
2023-05-14T03:24:28.810Z,56.80
2023-05-14T03:27:13.028Z,56.81
2023-05-14T03:29:56.918Z,56.84
2023-05-14T03:32:41.411Z,57.89
2023-05-14T03:35:26.779Z,58.56
2023-05-14T03:38:10.943Z,58.42
2023-05-14T03:40:54.820Z,57.67
2023-05-14T03:43:39.189Z,56.51
2023-05-14T03:46:23.106Z,54.31
2023-05-14T03:49:08.037Z,53.52
2023-05-14T03:51:53.513Z,53.70
2023-05-14T03:54:38.816Z,52.88
2023-05-14T03:57:22.785Z,52.29
2023-05-14T04:00:07.897Z,51.45
2023-05-14T04:03:01.791Z,50.93
2023-05-14T04:05:46.315Z,49.83
2023-05-14T04:08:31.888Z,49.15
2023-05-14T04:11:17.720Z,48.21
2023-05-14T04:14:01.984Z,47.69
2023-05-14T04:16:46.423Z,46.00
2023-05-14T04:19:30.340Z,45.82
2023-05-14T04:22:14.153Z,43.85
2023-05-14T04:25:00.059Z,44.49
2023-05-14T04:27:44.101Z,44.95
2023-05-14T04:30:28.035Z,43.92
2023-05-14T04:33:12.107Z,43.47
2023-05-14T04:35:56.179Z,44.44
2023-05-14T04:38:40.214Z,45.84
2023-05-14T04:41:25.524Z,44.57
2023-05-14T04:44:09.508Z,45.71
2023-05-14T04:46:53.359Z,49.01
2023-05-14T04:49:37.437Z,49.33
2023-05-14T04:52:21.580Z,50.79
2023-05-14T04:55:06.293Z,52.26
2023-05-14T04:57:51.515Z,53.56
2023-05-14T05:00:35.933Z,53.78
2023-05-14T05:03:19.925Z,53.80
2023-05-14T05:06:04.204Z,53.46
2023-05-14T05:08:48.438Z,53.19
2023-05-14T05:11:32.570Z,52.95
2023-05-14T05:14:18.396Z,53.10
2023-05-14T05:17:02.491Z,52.98
2023-05-14T05:19:46.784Z,53.06
2023-05-14T05:22:31.013Z,52.24
2023-05-14T05:25:15.019Z,51.84
2023-05-14T05:27:58.936Z,49.95
2023-05-14T05:30:45.304Z,49.41
2023-05-14T05:33:29.567Z,47.46
2023-05-14T05:36:13.551Z,48.29
2023-05-14T05:38:57.496Z,48.14
2023-05-14T05:41:41.907Z,48.40
2023-05-14T05:44:25.764Z,48.25
2023-05-14T05:47:11.658Z,48.93
2023-05-14T05:49:55.635Z,49.21
2023-05-14T05:52:40.317Z,50.11
2023-05-14T05:55:24.430Z,49.49
2023-05-14T05:58:08.695Z,49.76
2023-05-14T06:00:53.520Z,49.38
2023-05-14T06:03:39.204Z,48.71
2023-05-14T06:06:23.298Z,49.10
2023-05-14T06:09:09.038Z,49.76
2023-05-14T06:11:53.044Z,50.00
2023-05-14T06:14:37.449Z,49.61
2023-05-14T06:17:21.349Z,49.18
2023-05-14T06:20:09.125Z,48.87
2023-05-14T06:22:53.009Z,48.92
2023-05-14T06:25:38.146Z,48.20
2023-05-14T06:28:22.013Z,47.47
2023-05-14T06:31:06.129Z,47.85
2023-05-14T06:33:49.985Z,47.34
2023-05-14T06:36:35.361Z,47.24
2023-05-14T06:39:19.199Z,46.60
2023-05-14T06:42:03.489Z,45.45
2023-05-14T06:44:48.101Z,44.38
2023-05-14T06:47:32.169Z,44.26
2023-05-14T06:50:16.196Z,43.76
2023-05-14T06:53:01.490Z,43.89
2023-05-14T06:55:45.607Z,43.08
2023-05-14T06:58:29.496Z,42.80
2023-05-14T07:01:13.938Z,40.98
2023-05-14T07:03:58.004Z,39.83
2023-05-14T07:06:42.025Z,38.97
2023-05-14T07:09:27.327Z,39.94
2023-05-14T07:12:11.303Z,39.40
2023-05-14T07:14:57.015Z,38.57
2023-05-14T07:17:40.899Z,39.75
2023-05-14T07:20:25.341Z,38.29
2023-05-14T07:23:09.535Z,36.65
2023-05-14T07:25:54.777Z,37.31
2023-05-14T07:28:38.964Z,36.42
2023-05-14T07:31:23.114Z,35.88
2023-05-14T07:34:08.016Z,36.76
2023-05-14T07:36:51.942Z,34.66
2023-05-14T07:39:36.095Z,34.31
2023-05-14T07:42:34.502Z,34.24
2023-05-14T07:45:20.069Z,35.16
2023-05-14T07:48:04.187Z,35.84
2023-05-14T07:50:49.733Z,34.42
2023-05-14T07:53:33.720Z,33.08
2023-05-14T07:56:17.617Z,32.57
2023-05-14T07:59:03.234Z,33.46
2023-05-14T08:01:47.167Z,32.91
2023-05-14T08:04:31.068Z,32.45
2023-05-14T08:07:14.964Z,32.81
2023-05-14T08:09:59.052Z,33.61
2023-05-14T08:12:43.087Z,32.23
2023-05-14T08:15:29.319Z,32.35
2023-05-14T08:18:13.516Z,32.79
2023-05-14T08:20:57.941Z,31.78
2023-05-14T08:23:41.844Z,30.98
2023-05-14T08:26:25.966Z,34.30
2023-05-14T08:29:11.234Z,31.97
2023-05-14T08:31:59.089Z,31.58
2023-05-14T08:34:44.240Z,32.08
2023-05-14T08:37:28.170Z,32.09
2023-05-14T08:40:13.795Z,31.03
2023-05-14T08:42:58.349Z,30.22
2023-05-14T08:45:43.235Z,31.67
2023-05-14T08:48:33.398Z,30.87
2023-05-14T08:51:17.643Z,31.53
2023-05-14T08:54:03.813Z,32.68
2023-05-14T08:56:49.295Z,32.86
2023-05-14T08:59:34.849Z,31.65
2023-05-14T09:02:22.149Z,32.18
2023-05-14T09:05:09.287Z,32.00
2023-05-14T09:07:53.770Z,31.54
2023-05-14T09:10:37.775Z,33.49
2023-05-14T09:13:21.679Z,31.70
2023-05-14T09:16:06.311Z,31.69
2023-05-14T09:18:50.519Z,32.84
2023-05-14T09:21:36.730Z,31.88
2023-05-14T09:24:22.068Z,32.45
2023-05-14T09:27:06.667Z,32.06
2023-05-14T09:29:51.633Z,31.56
2023-05-14T09:32:41.301Z,31.16
2023-05-14T09:35:26.486Z,31.01
2023-05-14T09:38:12.960Z,29.53
2023-05-14T09:40:57.567Z,30.22
2023-05-14T09:43:41.421Z,29.98
2023-05-14T09:46:30.310Z,29.92
2023-05-14T09:49:14.503Z,29.18
2023-05-14T09:51:59.270Z,29.95
2023-05-14T09:54:45.128Z,28.89
2023-05-14T09:57:29.176Z,29.43
2023-05-14T10:00:14.238Z,29.36
2023-05-14T10:03:00.149Z,29.12
2023-05-14T10:05:45.156Z,28.49
2023-05-14T10:08:32.350Z,29.57
2023-05-14T10:11:22.379Z,28.42
2023-05-14T10:14:10.284Z,30.26
2023-05-14T10:16:55.526Z,29.43
2023-05-14T10:19:41.093Z,28.92
2023-05-14T10:22:28.780Z,29.77
2023-05-14T10:25:13.067Z,29.09
2023-05-14T10:27:59.143Z,30.81
2023-05-14T10:30:46.399Z,31.24
2023-05-14T10:33:30.412Z,30.24
2023-05-14T10:36:14.475Z,31.12
2023-05-14T10:38:58.721Z,30.09
2023-05-14T10:41:43.868Z,29.54
2023-05-14T10:44:30.288Z,28.78
2023-05-14T10:47:14.056Z,28.59
2023-05-14T10:50:00.490Z,28.44
2023-05-14T10:52:45.114Z,29.32
2023-05-14T10:55:28.974Z,28.75
2023-05-14T10:58:13.776Z,29.08
2023-05-14T11:00:58.986Z,30.34
2023-05-14T11:03:45.204Z,31.09
2023-05-14T11:06:31.463Z,29.58
2023-05-14T11:09:18.790Z,30.23
2023-05-14T11:12:02.671Z,29.80
2023-05-14T11:14:47.975Z,30.03
2023-05-14T11:17:33.913Z,29.93
2023-05-14T11:20:18.758Z,30.04
2023-05-14T11:23:03.562Z,30.02
2023-05-14T11:25:47.533Z,29.40
2023-05-14T11:28:31.436Z,30.58
2023-05-14T11:31:15.628Z,29.24
2023-05-14T11:34:01.045Z,28.05
2023-05-14T11:36:45.027Z,29.96
2023-05-14T11:39:28.904Z,29.80
2023-05-14T11:42:14.809Z,28.76
2023-05-14T11:44:58.648Z,28.79
2023-05-14T11:47:43.281Z,28.18
2023-05-14T11:50:28.503Z,29.08
2023-05-14T11:53:12.338Z,29.09
2023-05-14T11:55:57.785Z,29.65
2023-05-14T11:58:41.915Z,30.27
2023-05-14T12:01:25.793Z,31.23
2023-05-14T12:04:09.726Z,30.08
2023-05-14T12:06:55.029Z,28.90
2023-05-14T12:09:43.132Z,30.95
2023-05-14T12:12:28.110Z,29.35
2023-05-14T12:15:13.756Z,29.67
2023-05-14T12:17:57.816Z,31.23
2023-05-14T12:20:47.138Z,30.48
2023-05-14T12:23:33.657Z,31.62
2023-05-14T12:26:17.526Z,31.00
2023-05-14T12:29:02.614Z,29.41
2023-05-14T12:31:47.935Z,30.19
2023-05-14T12:34:32.016Z,31.61
2023-05-14T12:37:15.909Z,32.74
2023-05-14T12:40:00.983Z,32.14
2023-05-14T12:42:45.121Z,30.46
2023-05-14T12:45:29.172Z,29.94
2023-05-14T12:48:13.578Z,30.50
2023-05-14T12:50:57.705Z,29.48
2023-05-14T12:53:41.807Z,29.91
2023-05-14T12:56:28.463Z,28.06
2023-05-14T12:59:12.328Z,28.64
2023-05-14T13:01:56.452Z,27.59
2023-05-14T13:04:41.607Z,28.24
2023-05-14T13:07:25.737Z,28.83
2023-05-14T13:10:10.526Z,30.47
2023-05-14T13:12:56.618Z,31.12
2023-05-14T13:15:40.452Z,29.84
2023-05-14T13:18:25.675Z,29.13
2023-05-14T13:21:09.727Z,29.55
2023-05-14T13:23:53.462Z,29.85
2023-05-14T13:26:37.472Z,29.77
2023-05-14T13:29:22.661Z,30.28
2023-05-14T13:32:07.147Z,29.40
2023-05-14T13:34:51.030Z,28.92
2023-05-14T13:37:34.827Z,29.11
2023-05-14T13:40:18.577Z,28.17
2023-05-14T13:43:03.805Z,28.73
2023-05-14T13:45:49.045Z,30.21
2023-05-14T13:48:32.986Z,28.58
2023-05-14T13:51:17.050Z,28.20
2023-05-14T13:54:00.960Z,28.93
2023-05-14T13:56:44.871Z,29.47
2023-05-14T13:59:29.178Z,30.07
2023-05-14T14:02:14.804Z,29.37
2023-05-14T14:04:58.601Z,28.67
2023-05-14T14:07:42.739Z,28.63
2023-05-14T14:10:26.573Z,29.60
2023-05-14T14:13:11.067Z,29.21
2023-05-14T14:15:54.949Z,29.00
2023-05-14T14:18:40.250Z,29.01
2023-05-14T14:21:24.116Z,27.47
2023-05-14T14:24:08.417Z,29.20
2023-05-14T14:26:52.219Z,30.96
2023-05-14T14:29:36.773Z,29.30
2023-05-14T14:32:20.605Z,29.08
2023-05-14T14:35:06.560Z,27.59
2023-05-14T14:37:52.386Z,26.96
2023-05-14T14:40:36.587Z,26.80
2023-05-14T14:43:20.423Z,28.89
2023-05-14T14:46:04.418Z,27.39
2023-05-14T14:48:48.467Z,27.62
2023-05-14T14:51:33.631Z,27.94
2023-05-14T14:54:17.594Z,28.09
2023-05-14T14:57:01.485Z,28.25
2023-05-14T14:59:45.483Z,26.33
2023-05-14T15:02:29.748Z,28.13
2023-05-14T15:05:13.708Z,28.73
2023-05-14T15:07:58.939Z,28.54
2023-05-14T15:10:43.047Z,28.90
2023-05-14T15:13:27.157Z,28.95
2023-05-14T15:16:11.515Z,28.91
2023-05-14T15:18:55.480Z,29.49
2023-05-14T15:21:39.614Z,29.96
2023-05-14T15:24:26.242Z,30.34
2023-05-14T15:27:10.445Z,28.87
2023-05-14T15:29:54.382Z,29.01
2023-05-14T15:32:38.371Z,31.03
2023-05-14T15:35:22.456Z,31.85
2023-05-14T15:38:07.915Z,32.48
2023-05-14T15:40:53.133Z,30.92
2023-05-14T15:43:37.131Z,33.22
2023-05-14T15:46:22.878Z,33.51
2023-05-14T15:49:06.844Z,32.79
2023-05-14T15:51:50.732Z,33.26
2023-05-14T15:54:34.607Z,34.31
2023-05-14T15:57:20.272Z,34.96
2023-05-14T16:00:10.073Z,35.56
2023-05-14T16:02:54.037Z,36.30
2023-05-14T16:05:38.108Z,35.62
2023-05-14T16:08:22.018Z,36.08
2023-05-14T16:11:06.371Z,37.08
2023-05-14T16:13:51.871Z,38.34
2023-05-14T16:16:35.740Z,39.08
2023-05-14T16:19:19.721Z,41.14
2023-05-14T16:22:03.558Z,41.16
2023-05-14T16:24:47.355Z,42.22
2023-05-14T16:27:31.185Z,41.30
2023-05-14T16:30:16.678Z,42.16
2023-05-14T16:33:00.590Z,42.50
2023-05-14T16:35:45.493Z,43.35
2023-05-14T16:38:29.484Z,45.88
2023-05-14T16:41:13.414Z,45.04
2023-05-14T16:43:57.222Z,44.69
2023-05-14T16:46:42.576Z,44.85
2023-05-14T16:49:26.389Z,46.41
2023-05-14T16:52:10.565Z,46.04
2023-05-14T16:54:54.464Z,45.39
2023-05-14T16:57:38.354Z,45.64
2023-05-14T17:00:22.372Z,45.92
2023-05-14T17:03:07.842Z,46.49
2023-05-14T17:05:52.296Z,48.20
2023-05-14T17:08:36.175Z,48.79
2023-05-14T17:11:21.139Z,47.91
2023-05-14T17:14:05.116Z,48.18
2023-05-14T17:16:49.354Z,48.58
2023-05-14T17:19:34.574Z,49.99
2023-05-14T17:22:18.423Z,49.63
2023-05-14T17:25:02.346Z,48.98
2023-05-14T17:27:47.870Z,49.04
2023-05-14T17:30:31.821Z,50.16
2023-05-14T17:33:15.653Z,49.17
2023-05-14T17:36:01.074Z,48.00
2023-05-14T17:38:45.108Z,48.65
2023-05-14T17:41:29.076Z,48.52
2023-05-14T17:44:13.327Z,48.60
2023-05-14T17:46:57.638Z,48.84
2023-05-14T17:49:41.909Z,49.15
2023-05-14T17:52:27.204Z,49.47
2023-05-14T17:55:11.189Z,50.10
2023-05-14T17:57:55.092Z,50.48
2023-05-14T18:00:39.073Z,50.39
2023-05-14T18:03:23.017Z,50.18
2023-05-14T18:06:07.260Z,50.30
2023-05-14T18:08:52.690Z,50.36
2023-05-14T18:11:36.490Z,50.64
2023-05-14T18:14:20.347Z,52.44
2023-05-14T18:17:05.085Z,52.51
2023-05-14T18:19:49.249Z,52.58
2023-05-14T18:22:33.248Z,53.33
2023-05-14T18:25:19.188Z,53.36
2023-05-14T18:28:03.499Z,53.78
2023-05-14T18:30:47.693Z,54.34
2023-05-14T18:33:31.923Z,54.54
2023-05-14T18:36:15.988Z,55.13
2023-05-14T18:38:59.874Z,55.14
2023-05-14T18:41:45.610Z,54.42
2023-05-14T18:44:29.527Z,55.73
2023-05-14T18:47:13.696Z,55.20
2023-05-14T18:50:00.546Z,55.40
2023-05-14T18:52:44.860Z,55.90
2023-05-14T18:55:29.210Z,56.18
2023-05-14T18:58:15.584Z,56.08
2023-05-14T19:01:00.047Z,56.35
2023-05-14T19:03:44.394Z,56.32
2023-05-14T19:06:29.128Z,56.27
2023-05-14T19:09:14.874Z,56.25
2023-05-14T19:11:59.307Z,56.18
2023-05-14T19:14:45.488Z,56.63
2023-05-14T19:17:32.788Z,57.39
2023-05-14T19:20:17.258Z,57.60
2023-05-14T19:23:01.400Z,57.78
2023-05-14T19:25:46.015Z,58.53
2023-05-14T19:28:30.360Z,59.54
2023-05-14T19:31:16.043Z,60.29
2023-05-14T19:34:00.196Z,60.44
2023-05-14T19:36:44.415Z,60.63
2023-05-14T19:39:28.383Z,61.41
2023-05-14T19:42:12.505Z,61.11
2023-05-14T19:44:56.678Z,61.37
2023-05-14T19:47:43.109Z,61.62
2023-05-14T19:50:27.377Z,63.05
2023-05-14T19:53:11.414Z,63.19
2023-05-14T19:55:55.426Z,63.03
2023-05-14T19:58:39.548Z,64.50
2023-05-14T20:01:23.852Z,65.47
2023-05-14T20:04:09.371Z,64.56
2023-05-14T20:06:54.236Z,65.28
2023-05-14T20:09:38.498Z,63.78
2023-05-14T20:12:22.655Z,64.37
2023-05-14T20:15:07.930Z,63.55
2023-05-14T20:17:52.162Z,63.17
2023-05-14T20:20:37.557Z,63.16
2023-05-14T20:23:21.638Z,63.14
2023-05-14T20:26:05.741Z,63.39
2023-05-14T20:28:49.720Z,64.21
2023-05-14T20:31:33.625Z,64.42
2023-05-14T20:34:17.473Z,64.45
2023-05-14T20:37:05.002Z,64.50
2023-05-14T20:39:48.907Z,64.21
2023-05-14T20:42:33.216Z,63.75
2023-05-14T20:45:17.500Z,64.06
2023-05-14T20:48:01.355Z,63.80
2023-05-14T20:50:45.774Z,63.86
2023-05-14T20:53:31.203Z,64.19
2023-05-14T20:56:15.258Z,64.43
2023-05-14T20:58:59.102Z,66.85
2023-05-14T21:01:43.979Z,65.25
2023-05-14T21:04:27.917Z,65.01
2023-05-14T21:07:11.868Z,65.47
2023-05-14T21:09:57.104Z,65.42
2023-05-14T21:12:42.606Z,65.15
2023-05-14T21:15:27.427Z,65.76
2023-05-14T21:18:12.109Z,68.11
2023-05-14T21:20:55.918Z,66.90
2023-05-14T21:23:39.687Z,65.94
2023-05-14T21:26:24.919Z,66.55
2023-05-14T21:29:08.728Z,66.13
2023-05-14T21:31:52.500Z,66.64
2023-05-14T21:34:36.303Z,66.01
2023-05-14T21:37:20.096Z,65.17
2023-05-14T21:40:03.876Z,65.18
2023-05-14T21:42:51.551Z,66.62
2023-05-14T21:45:36.248Z,66.87
2023-05-14T21:48:21.077Z,66.01
2023-05-14T21:51:05.721Z,64.72
2023-05-14T21:53:52.279Z,64.45
2023-05-14T21:56:37.191Z,64.27
2023-05-14T21:59:22.660Z,65.67
2023-05-14T22:02:07.576Z,65.16
2023-05-14T22:04:51.810Z,65.12
2023-05-14T22:07:35.672Z,65.70
2023-05-14T22:10:20.767Z,66.16
2023-05-14T22:13:04.980Z,65.67
2023-05-14T22:15:55.479Z,68.66
2023-05-14T22:18:45.153Z,67.61
2023-05-14T22:21:28.999Z,68.34
2023-05-14T22:24:12.884Z,68.30
2023-05-14T22:26:56.715Z,67.76
2023-05-14T22:29:40.501Z,67.48
2023-05-14T22:32:25.902Z,67.59
2023-05-14T22:35:11.309Z,67.26
2023-05-14T22:37:55.364Z,68.17
2023-05-14T22:40:39.363Z,67.70
2023-05-14T22:43:23.295Z,67.98
2023-05-14T22:46:07.347Z,67.41
2023-05-14T22:48:52.531Z,67.06
2023-05-14T22:51:36.379Z,68.57
2023-05-14T22:54:20.219Z,68.33
2023-05-14T22:57:04.454Z,70.49
2023-05-14T22:59:48.263Z,69.20
2023-05-14T23:02:32.135Z,69.05
2023-05-14T23:05:17.706Z,69.57
2023-05-14T23:08:01.516Z,69.38
2023-05-14T23:10:45.597Z,67.56
2023-05-14T23:13:29.572Z,67.07
2023-05-14T23:16:13.336Z,66.69
2023-05-14T23:18:57.519Z,66.48
2023-05-14T23:21:42.901Z,67.03
2023-05-14T23:24:27.217Z,68.45
2023-05-14T23:27:12.515Z,68.26
2023-05-14T23:29:56.317Z,68.38
2023-05-14T23:32:40.200Z,68.50
2023-05-14T23:35:24.212Z,67.89
2023-05-14T23:38:09.606Z,69.52
2023-05-14T23:40:53.436Z,69.05
2023-05-14T23:43:37.366Z,70.93
2023-05-14T23:46:21.147Z,69.92
2023-05-14T23:49:05.224Z,69.37
2023-05-14T23:51:49.076Z,68.28
2023-05-14T23:54:34.396Z,68.70
2023-05-14T23:57:18.148Z,68.07
